createdAt,value
2023-06-23T00:03:24.044Z,17.46
2023-06-23T00:08:26.511Z,17.90
2023-06-23T00:13:28.936Z,17.61
2023-06-23T00:18:32.866Z,17.38
2023-06-23T00:23:36.306Z,17.72
2023-06-23T00:28:38.930Z,17.60
2023-06-23T00:33:43.542Z,17.56
2023-06-23T00:38:46.239Z,17.51
2023-06-23T00:43:54.664Z,17.48
2023-06-23T00:48:57.220Z,17.40
2023-06-23T00:53:59.966Z,17.54
2023-06-23T00:59:04.100Z,17.25
2023-06-23T01:04:06.683Z,16.98
2023-06-23T01:09:17.099Z,17.27
2023-06-23T01:14:24.933Z,17.30
2023-06-23T01:20:26.102Z,17.35
2023-06-23T01:25:49.092Z,17.09
2023-06-23T01:30:56.236Z,17.17
2023-06-23T01:36:09.890Z,17.15
2023-06-23T01:41:25.693Z,16.65
2023-06-23T01:46:36.498Z,16.84
2023-06-23T01:51:44.652Z,17.09
2023-06-23T01:56:48.175Z,16.95
2023-06-23T02:01:52.027Z,16.93
2023-06-23T02:06:55.219Z,16.61
2023-06-23T02:11:59.098Z,17.01
2023-06-23T02:17:03.141Z,16.98
2023-06-23T02:22:10.194Z,16.71
2023-06-23T02:27:13.780Z,16.94
2023-06-23T02:32:18.658Z,16.81
2023-06-23T02:37:25.060Z,16.94
2023-06-23T02:42:34.748Z,16.69
2023-06-23T02:47:39.408Z,16.92
2023-06-23T02:52:46.529Z,16.54
2023-06-23T02:57:51.468Z,16.88
2023-06-23T03:02:59.035Z,16.74
2023-06-23T03:08:02.885Z,16.77
2023-06-23T03:13:05.438Z,16.66
2023-06-23T03:18:18.735Z,16.96
2023-06-23T03:23:26.640Z,15.66
2023-06-23T03:28:30.932Z,16.77
2023-06-23T03:33:37.183Z,16.81
2023-06-23T03:38:45.986Z,17.07
2023-06-23T03:43:52.493Z,17.23
2023-06-23T03:48:58.056Z,17.06
2023-06-23T03:54:02.060Z,16.93
2023-06-23T03:59:05.292Z,16.69
2023-06-23T04:04:09.253Z,16.90
2023-06-23T04:09:12.104Z,16.79
2023-06-23T04:14:15.323Z,17.10
2023-06-23T04:19:19.506Z,17.12
2023-06-23T04:24:23.078Z,16.91
2023-06-23T04:29:27.448Z,16.89
2023-06-23T04:34:30.141Z,17.14
2023-06-23T04:39:48.931Z,17.11
2023-06-23T04:44:54.805Z,16.76
2023-06-23T04:50:00.264Z,16.99
2023-06-23T04:55:04.531Z,17.08
2023-06-23T05:00:09.178Z,16.69
2023-06-23T05:05:12.622Z,16.95
2023-06-23T05:10:15.310Z,16.69
2023-06-23T05:15:19.418Z,16.95
2023-06-23T05:20:22.671Z,16.64
2023-06-23T05:25:31.494Z,16.95
2023-06-23T05:30:34.305Z,17.28
2023-06-23T05:35:38.671Z,17.15
2023-06-23T05:40:41.332Z,17.18
2023-06-23T05:45:44.506Z,17.26
2023-06-23T05:50:49.006Z,17.21
2023-06-23T05:56:02.332Z,17.12
2023-06-23T06:01:09.677Z,16.59
2023-06-23T06:06:12.937Z,17.27
2023-06-23T06:11:18.361Z,17.17
2023-06-23T06:16:21.324Z,17.26
2023-06-23T06:21:24.194Z,16.62
2023-06-23T06:26:27.119Z,17.38
2023-06-23T06:31:30.693Z,17.37
2023-06-23T06:36:34.481Z,17.51
2023-06-23T06:41:37.672Z,17.53
2023-06-23T06:46:42.228Z,17.44
2023-06-23T06:51:45.782Z,17.54
2023-06-23T06:56:48.256Z,17.57
2023-06-23T07:01:51.230Z,17.46
2023-06-23T07:06:55.328Z,17.60
2023-06-23T07:12:00.859Z,17.10
2023-06-23T07:17:03.368Z,17.55
2023-06-23T07:22:06.274Z,17.28
2023-06-23T07:27:09.715Z,17.69
2023-06-23T07:32:13.208Z,17.57
2023-06-23T07:37:15.902Z,17.18
2023-06-23T07:42:18.407Z,17.32
2023-06-23T07:47:21.139Z,17.31
2023-06-23T07:52:23.662Z,17.66
2023-06-23T07:57:26.786Z,17.36
2023-06-23T08:02:29.345Z,17.05
2023-06-23T08:07:32.032Z,17.64
2023-06-23T08:12:34.781Z,17.39
2023-06-23T08:17:37.516Z,17.50
2023-06-23T08:22:41.996Z,17.63
2023-06-23T08:27:44.629Z,17.11
2023-06-23T08:32:47.092Z,17.25
2023-06-23T08:37:49.829Z,16.96
2023-06-23T08:42:52.369Z,16.91
2023-06-23T08:47:58.264Z,17.61
2023-06-23T08:53:01.050Z,17.07
2023-06-23T08:58:04.095Z,17.40
2023-06-23T09:03:06.775Z,17.51
2023-06-23T09:08:10.393Z,16.74
2023-06-23T09:13:24.674Z,17.05
2023-06-23T09:18:27.217Z,17.06
2023-06-23T09:23:35.123Z,16.94
2023-06-23T09:28:38.580Z,17.49
2023-06-23T09:33:49.400Z,17.46
2023-06-23T09:38:54.246Z,17.03
2023-06-23T09:43:58.965Z,17.67
2023-06-23T09:49:02.171Z,17.29
2023-06-23T09:54:08.041Z,17.86
2023-06-23T09:59:10.508Z,17.77
2023-06-23T10:04:13.101Z,17.67
2023-06-23T10:09:16.672Z,17.84
2023-06-23T10:14:19.892Z,17.54
2023-06-23T10:19:22.629Z,18.01
2023-06-23T10:24:25.325Z,17.80
2023-06-23T10:29:29.170Z,18.08
2023-06-23T10:34:33.273Z,18.11
2023-06-23T10:39:37.313Z,18.06
2023-06-23T10:44:43.028Z,18.21
2023-06-23T10:49:46.648Z,18.00
2023-06-23T10:54:49.304Z,17.96
2023-06-23T11:00:07.419Z,18.41
2023-06-23T11:05:18.162Z,18.30
2023-06-23T11:10:22.094Z,18.10
2023-06-23T11:15:26.901Z,18.50
2023-06-23T11:20:31.432Z,18.51
2023-06-23T11:25:51.286Z,18.43
2023-06-23T11:31:05.404Z,18.11
2023-06-23T11:36:17.164Z,18.68
2023-06-23T11:41:27.324Z,18.24
2023-06-23T11:46:34.367Z,18.80
2023-06-23T11:51:36.980Z,18.46
2023-06-23T11:56:43.011Z,18.93
2023-06-23T12:01:45.690Z,19.01
2023-06-23T12:06:48.943Z,18.95
2023-06-23T12:11:53.127Z,19.16
2023-06-23T12:17:12.782Z,19.34
2023-06-23T12:22:19.750Z,19.43
2023-06-23T12:27:26.585Z,19.33
2023-06-23T12:32:32.550Z,19.05
2023-06-23T12:37:47.064Z,19.75
2023-06-23T12:42:49.644Z,19.65
2023-06-23T12:47:58.887Z,19.83
2023-06-23T12:53:01.477Z,19.99
2023-06-23T12:58:04.091Z,19.61
2023-06-23T13:03:08.679Z,19.97
2023-06-23T13:08:15.113Z,19.85
2023-06-23T13:13:17.666Z,19.96
2023-06-23T13:18:20.203Z,19.73
2023-06-23T13:23:22.771Z,19.71
2023-06-23T13:28:25.404Z,20.45
2023-06-23T13:33:27.979Z,19.58
2023-06-23T13:38:30.434Z,19.55
2023-06-23T13:43:32.902Z,20.63
2023-06-23T13:48:35.473Z,20.75
2023-06-23T13:53:39.989Z,18.96
2023-06-23T13:58:42.482Z,20.43
2023-06-23T14:03:45.164Z,20.51
2023-06-23T14:08:49.931Z,20.27
2023-06-23T14:13:52.581Z,20.82
2023-06-23T14:18:55.223Z,20.90
2023-06-23T14:23:57.708Z,20.97
2023-06-23T14:29:00.345Z,20.49
2023-06-23T14:34:04.712Z,20.86
2023-06-23T14:39:08.662Z,20.90
2023-06-23T14:44:11.095Z,20.88
2023-06-23T14:49:13.679Z,21.05
2023-06-23T14:54:16.171Z,21.12
2023-06-23T14:59:18.712Z,21.04
2023-06-23T15:04:21.256Z,20.60
2023-06-23T15:09:23.829Z,21.09
2023-06-23T15:14:26.393Z,20.95
2023-06-23T15:19:28.869Z,20.81
2023-06-23T15:24:31.426Z,20.94
2023-06-23T15:29:33.906Z,20.49
2023-06-23T15:34:36.445Z,21.04
2023-06-23T15:39:42.280Z,20.57
2023-06-23T15:44:45.885Z,20.81
2023-06-23T15:49:48.584Z,20.54
2023-06-23T15:54:51.409Z,20.85
2023-06-23T15:59:54.010Z,20.59
2023-06-23T16:04:56.680Z,20.43
2023-06-23T16:09:59.345Z,20.32
2023-06-23T16:15:01.768Z,20.79
2023-06-23T16:20:08.042Z,20.39
2023-06-23T16:25:10.479Z,20.58
2023-06-23T16:30:12.952Z,20.52
2023-06-23T16:35:15.425Z,20.51
2023-06-23T16:40:17.936Z,20.71
2023-06-23T16:45:20.369Z,20.60
2023-06-23T16:50:22.889Z,20.68
2023-06-23T16:55:25.280Z,20.17
2023-06-23T17:00:29.563Z,20.20
2023-06-23T17:05:32.157Z,20.49
2023-06-23T17:10:34.913Z,20.38
2023-06-23T17:15:37.440Z,19.73
2023-06-23T17:20:39.865Z,20.27
2023-06-23T17:25:42.428Z,20.33
2023-06-23T17:30:46.159Z,20.30
2023-06-23T17:35:48.677Z,20.52
2023-06-23T17:40:51.163Z,20.49
2023-06-23T17:45:53.568Z,20.20
2023-06-23T17:50:56.016Z,20.30
2023-06-23T17:56:00.746Z,19.88
2023-06-23T18:01:04.714Z,19.75
2023-06-23T18:06:07.432Z,20.14
2023-06-23T18:11:10.405Z,19.53
2023-06-23T18:16:12.930Z,19.36
2023-06-23T18:21:17.725Z,19.84
2023-06-23T18:26:20.321Z,19.95
2023-06-23T18:31:22.857Z,19.70
2023-06-23T18:36:25.386Z,19.90
2023-06-23T18:41:27.890Z,19.36
2023-06-23T18:46:31.956Z,19.84
2023-06-23T18:51:39.411Z,19.51
2023-06-23T18:56:42.315Z,19.79
2023-06-23T19:01:44.843Z,19.30
2023-06-23T19:06:47.453Z,19.53
2023-06-23T19:11:50.003Z,19.39
2023-06-23T19:16:52.492Z,19.43
2023-06-23T19:21:57.585Z,19.56
2023-06-23T19:26:59.980Z,19.13
2023-06-23T19:32:02.676Z,19.41
2023-06-23T19:37:05.628Z,19.33
2023-06-23T19:42:08.487Z,19.40
2023-06-23T19:47:11.252Z,19.13
2023-06-23T19:52:16.411Z,19.21
2023-06-23T19:57:18.918Z,19.02
2023-06-23T20:02:22.083Z,19.10
2023-06-23T20:07:24.929Z,19.37
2023-06-23T20:12:27.585Z,19.34
2023-06-23T20:17:30.204Z,19.06
2023-06-23T20:22:32.709Z,19.07
2023-06-23T20:27:35.224Z,19.12
2023-06-23T20:32:39.860Z,18.72
2023-06-23T20:37:42.816Z,18.87
2023-06-23T20:42:45.226Z,19.14
2023-06-23T20:47:48.108Z,18.66
2023-06-23T20:52:55.895Z,18.96
2023-06-23T20:57:58.301Z,19.00
2023-06-23T21:03:00.817Z,18.42
2023-06-23T21:08:03.294Z,18.54
2023-06-23T21:13:05.866Z,18.76
2023-06-23T21:18:08.537Z,18.78
2023-06-23T21:23:13.244Z,18.37
2023-06-23T21:28:16.633Z,18.62
2023-06-23T21:33:19.090Z,18.59
2023-06-23T21:38:21.626Z,18.39
2023-06-23T21:43:24.037Z,18.49
2023-06-23T21:48:29.119Z,18.32
2023-06-23T21:53:31.548Z,18.38
2023-06-23T21:58:34.397Z,18.31
2023-06-23T22:03:38.305Z,18.30
2023-06-23T22:08:40.905Z,18.34
2023-06-23T22:13:43.276Z,18.07
2023-06-23T22:18:49.781Z,17.99
2023-06-23T22:23:52.886Z,17.95
2023-06-23T22:28:55.956Z,18.12
2023-06-23T22:33:58.390Z,17.96
2023-06-23T22:39:01.057Z,17.90
2023-06-23T22:44:03.516Z,17.72
2023-06-23T22:49:07.470Z,17.70
2023-06-23T22:54:09.843Z,17.59
2023-06-23T22:59:12.213Z,17.34
2023-06-23T23:04:14.957Z,17.11
2023-06-23T23:09:17.550Z,17.42
2023-06-23T23:14:20.412Z,17.36
2023-06-23T23:19:23.010Z,17.12
2023-06-23T23:24:25.368Z,17.33
2023-06-23T23:29:27.992Z,17.08
2023-06-23T23:34:33.613Z,17.17
2023-06-23T23:39:36.175Z,17.40
2023-06-23T23:44:38.567Z,17.46
2023-06-23T23:49:41.027Z,17.45
2023-06-23T23:54:43.396Z,17.21
2023-06-23T23:59:46.283Z,17.26
